sensor_id;sensor_type;location;lat;lon;timestamp;P1;durP1;ratioP1;P2;durP2;ratioP2
34920;SDS011;21128;50.016;20.002;2023-04-24T00:01:09;9.07;;;4.40;;
34920;SDS011;21128;50.016;20.002;2023-04-24T00:03:36;8.40;;;4.65;;
34920;SDS011;21128;50.016;20.002;2023-04-24T00:06:05;6.87;;;4.75;;
34920;SDS011;21128;50.016;20.002;2023-04-24T00:08:35;9.67;;;5.00;;
34920;SDS011;21128;50.016;20.002;2023-04-24T00:11:02;8.40;;;5.20;;
34920;SDS011;21128;50.016;20.002;2023-04-24T00:13:29;9.25;;;5.30;;
34920;SDS011;21128;50.016;20.002;2023-04-24T00:15:56;6.55;;;4.80;;
34920;SDS011;21128;50.016;20.002;2023-04-24T00:18:23;10.60;;;4.70;;
34920;SDS011;21128;50.016;20.002;2023-04-24T00:20:50;6.27;;;4.37;;
34920;SDS011;21128;50.016;20.002;2023-04-24T00:23:17;9.38;;;5.28;;
34920;SDS011;21128;50.016;20.002;2023-04-24T00:25:44;19.73;;;7.00;;
34920;SDS011;21128;50.016;20.002;2023-04-24T00:28:11;16.27;;;7.22;;
34920;SDS011;21128;50.016;20.002;2023-04-24T00:30:38;9.03;;;4.83;;
34920;SDS011;21128;50.016;20.002;2023-04-24T00:33:06;7.40;;;5.00;;
34920;SDS011;21128;50.016;20.002;2023-04-24T00:35:33;8.03;;;4.95;;
34920;SDS011;21128;50.016;20.002;2023-04-24T00:38:00;5.50;;;4.30;;
34920;SDS011;21128;50.016;20.002;2023-04-24T00:40:27;7.77;;;4.23;;
34920;SDS011;21128;50.016;20.002;2023-04-24T00:42:54;7.77;;;4.50;;
34920;SDS011;21128;50.016;20.002;2023-04-24T00:45:22;7.90;;;4.70;;
34920;SDS011;21128;50.016;20.002;2023-04-24T00:47:49;9.63;;;4.97;;
34920;SDS011;21128;50.016;20.002;2023-04-24T00:50:20;13.63;;;4.87;;
34920;SDS011;21128;50.016;20.002;2023-04-24T00:52:48;8.43;;;5.17;;
34920;SDS011;21128;50.016;20.002;2023-04-24T00:55:16;9.13;;;5.23;;
34920;SDS011;21128;50.016;20.002;2023-04-24T00:57:44;6.85;;;4.10;;
34920;SDS011;21128;50.016;20.002;2023-04-24T01:00:11;9.30;;;5.70;;
34920;SDS011;21128;50.016;20.002;2023-04-24T01:02:40;6.43;;;4.50;;
34920;SDS011;21128;50.016;20.002;2023-04-24T01:05:12;5.80;;;4.03;;
34920;SDS011;21128;50.016;20.002;2023-04-24T01:07:41;9.37;;;4.80;;
34920;SDS011;21128;50.016;20.002;2023-04-24T01:10:12;7.53;;;4.30;;
34920;SDS011;21128;50.016;20.002;2023-04-24T01:12:40;5.93;;;4.10;;
34920;SDS011;21128;50.016;20.002;2023-04-24T01:15:08;8.18;;;4.70;;
34920;SDS011;21128;50.016;20.002;2023-04-24T01:17:35;12.83;;;4.83;;
34920;SDS011;21128;50.016;20.002;2023-04-24T01:20:02;9.60;;;5.13;;
34920;SDS011;21128;50.016;20.002;2023-04-24T01:22:33;7.70;;;5.07;;
34920;SDS011;21128;50.016;20.002;2023-04-24T01:25:01;8.60;;;5.47;;
34920;SDS011;21128;50.016;20.002;2023-04-24T01:27:28;9.03;;;4.93;;
34920;SDS011;21128;50.016;20.002;2023-04-24T01:29:56;8.60;;;4.73;;
34920;SDS011;21128;50.016;20.002;2023-04-24T01:32:23;9.55;;;4.70;;
34920;SDS011;21128;50.016;20.002;2023-04-24T01:34:51;6.23;;;4.57;;
34920;SDS011;21128;50.016;20.002;2023-04-24T01:37:18;8.93;;;4.45;;
34920;SDS011;21128;50.016;20.002;2023-04-24T01:39:45;6.50;;;4.43;;
34920;SDS011;21128;50.016;20.002;2023-04-24T01:42:12;7.43;;;4.60;;
34920;SDS011;21128;50.016;20.002;2023-04-24T01:44:41;12.83;;;5.00;;
34920;SDS011;21128;50.016;20.002;2023-04-24T01:47:08;6.80;;;4.33;;
34920;SDS011;21128;50.016;20.002;2023-04-24T01:49:36;8.03;;;4.17;;
34920;SDS011;21128;50.016;20.002;2023-04-24T01:52:05;8.43;;;4.73;;
34920;SDS011;21128;50.016;20.002;2023-04-24T01:54:32;9.13;;;4.60;;
34920;SDS011;21128;50.016;20.002;2023-04-24T01:56:59;7.10;;;4.60;;
34920;SDS011;21128;50.016;20.002;2023-04-24T01:59:27;9.45;;;4.65;;
34920;SDS011;21128;50.016;20.002;2023-04-24T02:01:56;9.93;;;4.60;;
34920;SDS011;21128;50.016;20.002;2023-04-24T02:04:23;7.70;;;4.50;;
34920;SDS011;21128;50.016;20.002;2023-04-24T02:06:50;7.03;;;4.60;;
34920;SDS011;21128;50.016;20.002;2023-04-24T02:09:17;11.85;;;4.80;;
34920;SDS011;21128;50.016;20.002;2023-04-24T02:11:44;6.63;;;4.40;;
34920;SDS011;21128;50.016;20.002;2023-04-24T02:14:11;9.20;;;4.80;;
34920;SDS011;21128;50.016;20.002;2023-04-24T02:16:38;9.50;;;5.73;;
34920;SDS011;21128;50.016;20.002;2023-04-24T02:19:05;7.73;;;5.10;;
34920;SDS011;21128;50.016;20.002;2023-04-24T02:21:32;8.73;;;5.10;;
34920;SDS011;21128;50.016;20.002;2023-04-24T02:24:00;10.00;;;4.50;;
34920;SDS011;21128;50.016;20.002;2023-04-24T02:26:27;6.07;;;4.57;;
34920;SDS011;21128;50.016;20.002;2023-04-24T02:28:54;9.90;;;5.20;;
34920;SDS011;21128;50.016;20.002;2023-04-24T02:31:21;8.23;;;4.90;;
34920;SDS011;21128;50.016;20.002;2023-04-24T02:33:48;6.10;;;4.67;;
34920;SDS011;21128;50.016;20.002;2023-04-24T02:36:15;11.30;;;5.03;;
34920;SDS011;21128;50.016;20.002;2023-04-24T02:38:42;6.55;;;4.35;;
34920;SDS011;21128;50.016;20.002;2023-04-24T02:41:09;11.60;;;5.58;;
34920;SDS011;21128;50.016;20.002;2023-04-24T02:43:36;10.80;;;5.00;;
34920;SDS011;21128;50.016;20.002;2023-04-24T02:46:03;13.37;;;5.17;;
34920;SDS011;21128;50.016;20.002;2023-04-24T02:48:30;8.80;;;5.35;;
34920;SDS011;21128;50.016;20.002;2023-04-24T02:50:56;8.50;;;4.97;;
34920;SDS011;21128;50.016;20.002;2023-04-24T02:53:24;11.03;;;4.60;;
34920;SDS011;21128;50.016;20.002;2023-04-24T02:55:51;12.20;;;5.10;;
34920;SDS011;21128;50.016;20.002;2023-04-24T02:58:18;14.63;;;5.20;;
34920;SDS011;21128;50.016;20.002;2023-04-24T03:00:46;7.70;;;4.93;;
34920;SDS011;21128;50.016;20.002;2023-04-24T03:03:14;10.50;;;5.13;;
34920;SDS011;21128;50.016;20.002;2023-04-24T03:05:41;14.50;;;5.17;;
34920;SDS011;21128;50.016;20.002;2023-04-24T03:08:08;11.90;;;5.07;;
34920;SDS011;21128;50.016;20.002;2023-04-24T03:10:36;12.10;;;6.43;;
34920;SDS011;21128;50.016;20.002;2023-04-24T03:13:03;14.40;;;6.43;;
34920;SDS011;21128;50.016;20.002;2023-04-24T03:15:31;9.73;;;5.33;;
34920;SDS011;21128;50.016;20.002;2023-04-24T03:17:58;9.55;;;5.80;;
34920;SDS011;21128;50.016;20.002;2023-04-24T03:20:25;7.60;;;4.93;;
34920;SDS011;21128;50.016;20.002;2023-04-24T03:22:53;9.17;;;5.27;;
34920;SDS011;21128;50.016;20.002;2023-04-24T03:25:20;7.47;;;5.08;;
34920;SDS011;21128;50.016;20.002;2023-04-24T03:27:47;9.73;;;5.27;;
34920;SDS011;21128;50.016;20.002;2023-04-24T03:30:14;13.60;;;5.80;;
34920;SDS011;21128;50.016;20.002;2023-04-24T03:32:41;20.25;;;8.55;;
34920;SDS011;21128;50.016;20.002;2023-04-24T03:35:11;13.27;;;7.50;;
34920;SDS011;21128;50.016;20.002;2023-04-24T03:37:38;14.55;;;6.78;;
34920;SDS011;21128;50.016;20.002;2023-04-24T03:40:05;10.30;;;6.07;;
34920;SDS011;21128;50.016;20.002;2023-04-24T03:42:33;15.20;;;6.22;;
34920;SDS011;21128;50.016;20.002;2023-04-24T03:45:00;21.27;;;7.17;;
34920;SDS011;21128;50.016;20.002;2023-04-24T03:47:27;19.07;;;7.47;;
34920;SDS011;21128;50.016;20.002;2023-04-24T03:49:54;26.45;;;7.30;;
34920;SDS011;21128;50.016;20.002;2023-04-24T03:52:22;16.37;;;7.20;;
34920;SDS011;21128;50.016;20.002;2023-04-24T03:54:49;26.43;;;7.57;;
34920;SDS011;21128;50.016;20.002;2023-04-24T03:57:16;24.73;;;7.03;;
34920;SDS011;21128;50.016;20.002;2023-04-24T03:59:43;18.60;;;7.77;;
34920;SDS011;21128;50.016;20.002;2023-04-24T04:02:10;28.37;;;8.77;;
34920;SDS011;21128;50.016;20.002;2023-04-24T04:04:37;18.45;;;7.60;;
34920;SDS011;21128;50.016;20.002;2023-04-24T04:07:04;22.77;;;7.60;;
34920;SDS011;21128;50.016;20.002;2023-04-24T04:09:31;25.63;;;7.77;;
34920;SDS011;21128;50.016;20.002;2023-04-24T04:11:59;25.53;;;7.67;;
34920;SDS011;21128;50.016;20.002;2023-04-24T04:14:27;25.07;;;7.60;;
34920;SDS011;21128;50.016;20.002;2023-04-24T04:16:54;26.68;;;8.98;;
34920;SDS011;21128;50.016;20.002;2023-04-24T04:19:21;23.73;;;10.13;;
34920;SDS011;21128;50.016;20.002;2023-04-24T04:21:48;23.97;;;8.30;;
34920;SDS011;21128;50.016;20.002;2023-04-24T04:24:19;19.07;;;7.83;;
34920;SDS011;21128;50.016;20.002;2023-04-24T04:26:50;30.30;;;8.65;;
34920;SDS011;21128;50.016;20.002;2023-04-24T04:29:17;15.57;;;7.33;;
34920;SDS011;21128;50.016;20.002;2023-04-24T04:31:49;15.77;;;7.13;;
34920;SDS011;21128;50.016;20.002;2023-04-24T04:34:16;16.00;;;6.93;;
34920;SDS011;21128;50.016;20.002;2023-04-24T04:36:43;17.80;;;7.03;;
34920;SDS011;21128;50.016;20.002;2023-04-24T04:39:10;18.67;;;7.20;;
34920;SDS011;21128;50.016;20.002;2023-04-24T04:41:37;20.50;;;6.97;;
34920;SDS011;21128;50.016;20.002;2023-04-24T04:44:06;20.60;;;7.70;;
34920;SDS011;21128;50.016;20.002;2023-04-24T04:46:35;19.67;;;7.87;;
34920;SDS011;21128;50.016;20.002;2023-04-24T04:49:03;19.30;;;8.37;;
34920;SDS011;21128;50.016;20.002;2023-04-24T04:51:31;20.80;;;7.67;;
34920;SDS011;21128;50.016;20.002;2023-04-24T04:53:58;18.10;;;8.13;;
34920;SDS011;21128;50.016;20.002;2023-04-24T04:56:25;22.43;;;7.07;;
34920;SDS011;21128;50.016;20.002;2023-04-24T04:58:52;20.48;;;7.97;;
34920;SDS011;21128;50.016;20.002;2023-04-24T05:01:19;21.00;;;9.17;;
34920;SDS011;21128;50.016;20.002;2023-04-24T05:03:46;22.87;;;8.90;;
34920;SDS011;21128;50.016;20.002;2023-04-24T05:06:13;27.23;;;9.30;;
34920;SDS011;21128;50.016;20.002;2023-04-24T05:08:40;18.57;;;8.60;;
34920;SDS011;21128;50.016;20.002;2023-04-24T05:11:07;17.37;;;7.60;;
34920;SDS011;21128;50.016;20.002;2023-04-24T05:13:34;11.93;;;7.67;;
34920;SDS011;21128;50.016;20.002;2023-04-24T05:16:01;17.30;;;7.90;;
34920;SDS011;21128;50.016;20.002;2023-04-24T05:18:28;16.97;;;8.20;;
34920;SDS011;21128;50.016;20.002;2023-04-24T05:20:56;18.10;;;7.72;;
34920;SDS011;21128;50.016;20.002;2023-04-24T05:23:23;13.90;;;7.93;;
34920;SDS011;21128;50.016;20.002;2023-04-24T05:25:50;15.63;;;8.00;;
34920;SDS011;21128;50.016;20.002;2023-04-24T05:28:17;16.80;;;7.53;;
34920;SDS011;21128;50.016;20.002;2023-04-24T05:30:44;20.27;;;8.30;;
34920;SDS011;21128;50.016;20.002;2023-04-24T05:33:11;17.10;;;8.30;;
34920;SDS011;21128;50.016;20.002;2023-04-24T05:35:38;15.63;;;7.90;;
34920;SDS011;21128;50.016;20.002;2023-04-24T05:38:06;24.60;;;8.03;;
34920;SDS011;21128;50.016;20.002;2023-04-24T05:40:33;27.05;;;9.50;;
34920;SDS011;21128;50.016;20.002;2023-04-24T05:43:00;17.90;;;8.75;;
34920;SDS011;21128;50.016;20.002;2023-04-24T05:45:27;22.45;;;8.75;;
34920;SDS011;21128;50.016;20.002;2023-04-24T05:47:54;20.80;;;10.23;;
34920;SDS011;21128;50.016;20.002;2023-04-24T05:50:21;39.40;;;12.90;;
34920;SDS011;21128;50.016;20.002;2023-04-24T05:52:48;33.58;;;13.48;;
34920;SDS011;21128;50.016;20.002;2023-04-24T05:55:15;36.10;;;12.90;;
34920;SDS011;21128;50.016;20.002;2023-04-24T05:57:44;36.57;;;12.37;;
34920;SDS011;21128;50.016;20.002;2023-04-24T06:00:12;51.50;;;13.77;;
34920;SDS011;21128;50.016;20.002;2023-04-24T06:02:39;41.40;;;13.57;;
34920;SDS011;21128;50.016;20.002;2023-04-24T06:05:06;50.23;;;14.43;;
34920;SDS011;21128;50.016;20.002;2023-04-24T06:07:34;33.10;;;14.60;;
34920;SDS011;21128;50.016;20.002;2023-04-24T06:10:02;44.67;;;14.18;;
34920;SDS011;21128;50.016;20.002;2023-04-24T06:12:29;46.40;;;15.17;;
34920;SDS011;21128;50.016;20.002;2023-04-24T06:14:56;39.30;;;15.70;;
34920;SDS011;21128;50.016;20.002;2023-04-24T06:17:23;42.43;;;12.83;;
34920;SDS011;21128;50.016;20.002;2023-04-24T06:19:49;37.83;;;13.07;;
34920;SDS011;21128;50.016;20.002;2023-04-24T06:22:16;39.07;;;12.20;;
34920;SDS011;21128;50.016;20.002;2023-04-24T06:24:43;47.05;;;11.73;;
34920;SDS011;21128;50.016;20.002;2023-04-24T06:27:10;49.33;;;13.10;;
34920;SDS011;21128;50.016;20.002;2023-04-24T06:29:37;40.73;;;12.23;;
34920;SDS011;21128;50.016;20.002;2023-04-24T06:32:04;57.03;;;14.37;;
34920;SDS011;21128;50.016;20.002;2023-04-24T06:34:31;34.57;;;12.20;;
34920;SDS011;21128;50.016;20.002;2023-04-24T06:37:00;44.97;;;12.23;;
34920;SDS011;21128;50.016;20.002;2023-04-24T06:39:28;38.27;;;13.10;;
34920;SDS011;21128;50.016;20.002;2023-04-24T06:41:55;49.23;;;11.57;;
34920;SDS011;21128;50.016;20.002;2023-04-24T06:44:22;34.70;;;13.50;;
34920;SDS011;21128;50.016;20.002;2023-04-24T06:46:49;52.10;;;12.87;;
34920;SDS011;21128;50.016;20.002;2023-04-24T06:49:16;39.13;;;12.18;;
34920;SDS011;21128;50.016;20.002;2023-04-24T06:51:43;32.90;;;11.00;;
34920;SDS011;21128;50.016;20.002;2023-04-24T06:54:11;33.65;;;9.00;;
34920;SDS011;21128;50.016;20.002;2023-04-24T06:56:38;40.63;;;9.83;;
34920;SDS011;21128;50.016;20.002;2023-04-24T06:59:04;36.73;;;9.55;;
34920;SDS011;21128;50.016;20.002;2023-04-24T07:01:31;35.27;;;8.90;;
34920;SDS011;21128;50.016;20.002;2023-04-24T07:03:58;40.25;;;8.48;;
34920;SDS011;21128;50.016;20.002;2023-04-24T07:06:25;33.57;;;8.93;;
34920;SDS011;21128;50.016;20.002;2023-04-24T07:08:53;19.60;;;7.30;;
34920;SDS011;21128;50.016;20.002;2023-04-24T07:11:20;30.57;;;7.35;;
34920;SDS011;21128;50.016;20.002;2023-04-24T07:13:48;15.90;;;6.47;;
34920;SDS011;21128;50.016;20.002;2023-04-24T07:16:15;14.00;;;6.63;;
34920;SDS011;21128;50.016;20.002;2023-04-24T07:18:42;14.98;;;6.25;;
34920;SDS011;21128;50.016;20.002;2023-04-24T07:21:09;9.47;;;4.03;;
34920;SDS011;21128;50.016;20.002;2023-04-24T07:23:36;6.15;;;3.60;;
34920;SDS011;21128;50.016;20.002;2023-04-24T07:26:03;13.97;;;4.13;;
34920;SDS011;21128;50.016;20.002;2023-04-24T07:28:31;16.10;;;5.13;;
34920;SDS011;21128;50.016;20.002;2023-04-24T07:30:58;9.23;;;3.90;;
34920;SDS011;21128;50.016;20.002;2023-04-24T07:33:26;6.30;;;3.33;;
34920;SDS011;21128;50.016;20.002;2023-04-24T07:35:53;7.42;;;3.17;;
34920;SDS011;21128;50.016;20.002;2023-04-24T07:38:21;7.33;;;3.72;;
34920;SDS011;21128;50.016;20.002;2023-04-24T07:40:48;3.98;;;2.92;;
34920;SDS011;21128;50.016;20.002;2023-04-24T07:43:15;6.40;;;3.50;;
34920;SDS011;21128;50.016;20.002;2023-04-24T07:45:42;6.10;;;3.17;;
34920;SDS011;21128;50.016;20.002;2023-04-24T07:48:10;8.00;;;3.10;;
34920;SDS011;21128;50.016;20.002;2023-04-24T07:50:37;7.23;;;3.30;;
34920;SDS011;21128;50.016;20.002;2023-04-24T07:53:04;3.90;;;3.05;;
34920;SDS011;21128;50.016;20.002;2023-04-24T07:55:31;8.77;;;3.80;;
34920;SDS011;21128;50.016;20.002;2023-04-24T07:57:58;5.58;;;3.70;;
34920;SDS011;21128;50.016;20.002;2023-04-24T08:00:25;6.30;;;3.27;;
34920;SDS011;21128;50.016;20.002;2023-04-24T08:02:52;6.30;;;3.90;;
34920;SDS011;21128;50.016;20.002;2023-04-24T08:05:19;6.73;;;3.57;;
34920;SDS011;21128;50.016;20.002;2023-04-24T08:07:46;6.55;;;3.60;;
34920;SDS011;21128;50.016;20.002;2023-04-24T08:10:15;5.37;;;2.90;;
34920;SDS011;21128;50.016;20.002;2023-04-24T08:12:42;7.30;;;3.03;;
34920;SDS011;21128;50.016;20.002;2023-04-24T08:15:09;8.57;;;3.60;;
34920;SDS011;21128;50.016;20.002;2023-04-24T08:17:36;8.00;;;3.37;;
34920;SDS011;21128;50.016;20.002;2023-04-24T08:20:03;6.63;;;3.20;;
34920;SDS011;21128;50.016;20.002;2023-04-24T08:22:31;7.87;;;3.30;;
34920;SDS011;21128;50.016;20.002;2023-04-24T08:24:59;4.00;;;3.00;;
34920;SDS011;21128;50.016;20.002;2023-04-24T08:27:26;5.27;;;3.03;;
34920;SDS011;21128;50.016;20.002;2023-04-24T08:29:54;6.03;;;3.43;;
34920;SDS011;21128;50.016;20.002;2023-04-24T08:32:21;8.50;;;3.00;;
34920;SDS011;21128;50.016;20.002;2023-04-24T08:34:48;8.30;;;3.58;;
34920;SDS011;21128;50.016;20.002;2023-04-24T08:37:15;6.40;;;3.47;;
34920;SDS011;21128;50.016;20.002;2023-04-24T08:39:42;6.87;;;3.13;;
34920;SDS011;21128;50.016;20.002;2023-04-24T08:42:09;4.43;;;3.10;;
34920;SDS011;21128;50.016;20.002;2023-04-24T08:44:38;5.63;;;3.10;;
34920;SDS011;21128;50.016;20.002;2023-04-24T08:47:05;4.70;;;2.77;;
34920;SDS011;21128;50.016;20.002;2023-04-24T08:49:34;5.10;;;2.87;;
34920;SDS011;21128;50.016;20.002;2023-04-24T08:52:03;4.27;;;2.73;;
34920;SDS011;21128;50.016;20.002;2023-04-24T08:54:31;7.37;;;3.50;;
34920;SDS011;21128;50.016;20.002;2023-04-24T08:57:01;6.27;;;2.83;;
34920;SDS011;21128;50.016;20.002;2023-04-24T08:59:30;5.90;;;3.13;;
34920;SDS011;21128;50.016;20.002;2023-04-24T09:01:57;4.93;;;3.30;;
34920;SDS011;21128;50.016;20.002;2023-04-24T09:04:25;8.70;;;3.50;;
34920;SDS011;21128;50.016;20.002;2023-04-24T09:06:55;4.47;;;2.90;;
34920;SDS011;21128;50.016;20.002;2023-04-24T09:09:24;7.53;;;3.43;;
34920;SDS011;21128;50.016;20.002;2023-04-24T09:11:52;6.60;;;3.17;;
34920;SDS011;21128;50.016;20.002;2023-04-24T09:14:23;7.20;;;3.27;;
34920;SDS011;21128;50.016;20.002;2023-04-24T09:16:51;6.50;;;2.73;;
34920;SDS011;21128;50.016;20.002;2023-04-24T09:19:18;4.22;;;3.10;;
34920;SDS011;21128;50.016;20.002;2023-04-24T09:21:46;7.27;;;3.00;;
34920;SDS011;21128;50.016;20.002;2023-04-24T09:24:17;5.30;;;2.93;;
34920;SDS011;21128;50.016;20.002;2023-04-24T09:26:55;4.00;;;2.70;;
34920;SDS011;21128;50.016;20.002;2023-04-24T09:29:25;4.77;;;3.03;;
34920;SDS011;21128;50.016;20.002;2023-04-24T09:31:52;9.68;;;3.12;;
34920;SDS011;21128;50.016;20.002;2023-04-24T09:34:22;3.63;;;2.67;;
34920;SDS011;21128;50.016;20.002;2023-04-24T09:36:51;6.63;;;2.70;;
34920;SDS011;21128;50.016;20.002;2023-04-24T09:39:18;5.23;;;2.47;;
34920;SDS011;21128;50.016;20.002;2023-04-24T09:41:48;6.60;;;2.50;;
34920;SDS011;21128;50.016;20.002;2023-04-24T09:46:54;4.83;;;2.53;;
34920;SDS011;21128;50.016;20.002;2023-04-24T09:49:23;6.00;;;2.90;;
34920;SDS011;21128;50.016;20.002;2023-04-24T09:51:51;5.90;;;2.73;;
34920;SDS011;21128;50.016;20.002;2023-04-24T09:54:28;6.65;;;2.60;;
34920;SDS011;21128;50.016;20.002;2023-04-24T09:56:56;3.80;;;2.13;;
34920;SDS011;21128;50.016;20.002;2023-04-24T09:59:23;6.33;;;2.53;;
34920;SDS011;21128;50.016;20.002;2023-04-24T10:01:50;4.03;;;2.33;;
34920;SDS011;21128;50.016;20.002;2023-04-24T10:04:25;7.00;;;2.53;;
34920;SDS011;21128;50.016;20.002;2023-04-24T10:06:54;8.60;;;3.10;;
34920;SDS011;21128;50.016;20.002;2023-04-24T10:09:23;3.67;;;2.60;;
34920;SDS011;21128;50.016;20.002;2023-04-24T10:11:53;5.23;;;2.73;;
34920;SDS011;21128;50.016;20.002;2023-04-24T10:14:22;4.60;;;2.90;;
34920;SDS011;21128;50.016;20.002;2023-04-24T10:16:55;4.00;;;2.70;;
34920;SDS011;21128;50.016;20.002;2023-04-24T10:19:25;5.97;;;2.87;;
34920;SDS011;21128;50.016;20.002;2023-04-24T10:21:53;4.27;;;2.27;;
34920;SDS011;21128;50.016;20.002;2023-04-24T10:24:22;6.50;;;2.83;;
34920;SDS011;21128;50.016;20.002;2023-04-24T10:26:49;3.83;;;2.42;;
34920;SDS011;21128;50.016;20.002;2023-04-24T10:29:19;6.70;;;2.40;;
34920;SDS011;21128;50.016;20.002;2023-04-24T10:31:47;4.47;;;2.67;;
34920;SDS011;21128;50.016;20.002;2023-04-24T10:34:15;3.70;;;2.95;;
34920;SDS011;21128;50.016;20.002;2023-04-24T10:36:50;4.87;;;2.80;;
34920;SDS011;21128;50.016;20.002;2023-04-24T10:39:19;6.13;;;2.43;;
34920;SDS011;21128;50.016;20.002;2023-04-24T10:41:48;9.23;;;2.80;;
34920;SDS011;21128;50.016;20.002;2023-04-24T10:44:16;8.03;;;2.60;;
34920;SDS011;21128;50.016;20.002;2023-04-24T10:46:43;3.70;;;2.35;;
34920;SDS011;21128;50.016;20.002;2023-04-24T10:49:11;6.20;;;2.20;;
34920;SDS011;21128;50.016;20.002;2023-04-24T10:51:49;2.60;;;2.13;;
34920;SDS011;21128;50.016;20.002;2023-04-24T10:57:28;5.60;;;2.47;;
34920;SDS011;21128;50.016;20.002;2023-04-24T11:00:10;4.60;;;2.50;;
34920;SDS011;21128;50.016;20.002;2023-04-24T11:02:41;5.93;;;2.23;;
34920;SDS011;21128;50.016;20.002;2023-04-24T11:05:16;3.17;;;2.53;;
34920;SDS011;21128;50.016;20.002;2023-04-24T11:10:54;3.30;;;2.20;;
34920;SDS011;21128;50.016;20.002;2023-04-24T11:13:24;5.80;;;2.30;;
34920;SDS011;21128;50.016;20.002;2023-04-24T11:18:57;5.65;;;2.70;;
34920;SDS011;21128;50.016;20.002;2023-04-24T11:21:42;3.25;;;2.60;;
34920;SDS011;21128;50.016;20.002;2023-04-24T11:26:53;5.33;;;2.90;;
34920;SDS011;21128;50.016;20.002;2023-04-24T11:32:30;6.15;;;2.90;;
34920;SDS011;21128;50.016;20.002;2023-04-24T11:35:01;5.80;;;3.33;;
34920;SDS011;21128;50.016;20.002;2023-04-24T11:37:54;5.67;;;2.77;;
34920;SDS011;21128;50.016;20.002;2023-04-24T11:40:21;5.13;;;3.00;;
34920;SDS011;21128;50.016;20.002;2023-04-24T11:42:50;6.97;;;2.50;;
34920;SDS011;21128;50.016;20.002;2023-04-24T11:45:20;5.17;;;2.70;;
34920;SDS011;21128;50.016;20.002;2023-04-24T11:47:49;5.33;;;2.53;;
34920;SDS011;21128;50.016;20.002;2023-04-24T11:50:21;9.17;;;2.93;;
34920;SDS011;21128;50.016;20.002;2023-04-24T11:52:49;4.70;;;2.63;;
34920;SDS011;21128;50.016;20.002;2023-04-24T11:57:44;5.63;;;2.47;;
34920;SDS011;21128;50.016;20.002;2023-04-24T12:00:19;4.33;;;3.27;;
34920;SDS011;21128;50.016;20.002;2023-04-24T12:02:51;5.50;;;3.03;;
34920;SDS011;21128;50.016;20.002;2023-04-24T12:05:30;4.23;;;2.40;;
34920;SDS011;21128;50.016;20.002;2023-04-24T12:08:01;3.17;;;2.50;;
34920;SDS011;21128;50.016;20.002;2023-04-24T12:10:29;4.20;;;2.75;;
34920;SDS011;21128;50.016;20.002;2023-04-24T12:12:58;4.70;;;2.70;;
34920;SDS011;21128;50.016;20.002;2023-04-24T12:15:27;10.10;;;3.17;;
34920;SDS011;21128;50.016;20.002;2023-04-24T12:17:54;4.57;;;3.03;;
34920;SDS011;21128;50.016;20.002;2023-04-24T12:20:26;6.97;;;2.90;;
34920;SDS011;21128;50.016;20.002;2023-04-24T12:22:57;4.97;;;2.73;;
34920;SDS011;21128;50.016;20.002;2023-04-24T12:25:29;6.13;;;3.00;;
34920;SDS011;21128;50.016;20.002;2023-04-24T12:30:33;9.53;;;3.40;;
34920;SDS011;21128;50.016;20.002;2023-04-24T12:33:06;6.00;;;3.30;;
34920;SDS011;21128;50.016;20.002;2023-04-24T12:35:33;6.37;;;3.27;;
34920;SDS011;21128;50.016;20.002;2023-04-24T12:38:05;6.67;;;3.40;;
34920;SDS011;21128;50.016;20.002;2023-04-24T12:40:34;6.93;;;3.30;;
34920;SDS011;21128;50.016;20.002;2023-04-24T12:43:13;6.67;;;3.50;;
34920;SDS011;21128;50.016;20.002;2023-04-24T12:45:44;11.23;;;3.17;;
34920;SDS011;21128;50.016;20.002;2023-04-24T12:48:12;6.50;;;3.20;;
34920;SDS011;21128;50.016;20.002;2023-04-24T12:50:40;3.73;;;2.90;;
34920;SDS011;21128;50.016;20.002;2023-04-24T12:53:08;6.37;;;3.60;;
34920;SDS011;21128;50.016;20.002;2023-04-24T12:55:36;12.17;;;4.10;;
34920;SDS011;21128;50.016;20.002;2023-04-24T12:58:03;11.13;;;4.80;;
34920;SDS011;21128;50.016;20.002;2023-04-24T13:00:30;10.68;;;4.53;;
34920;SDS011;21128;50.016;20.002;2023-04-24T13:02:57;12.70;;;4.17;;
34920;SDS011;21128;50.016;20.002;2023-04-24T13:05:24;8.28;;;4.47;;
34920;SDS011;21128;50.016;20.002;2023-04-24T13:07:51;14.93;;;4.67;;
34920;SDS011;21128;50.016;20.002;2023-04-24T13:10:18;9.45;;;4.60;;
34920;SDS011;21128;50.016;20.002;2023-04-24T13:12:45;8.00;;;5.00;;
34920;SDS011;21128;50.016;20.002;2023-04-24T13:15:13;12.00;;;5.00;;
34920;SDS011;21128;50.016;20.002;2023-04-24T13:17:40;15.40;;;4.73;;
34920;SDS011;21128;50.016;20.002;2023-04-24T13:20:07;9.73;;;3.70;;
34920;SDS011;21128;50.016;20.002;2023-04-24T13:22:34;11.55;;;3.55;;
34920;SDS011;21128;50.016;20.002;2023-04-24T13:25:03;8.05;;;4.00;;
34920;SDS011;21128;50.016;20.002;2023-04-24T13:27:32;7.83;;;3.73;;
34920;SDS011;21128;50.016;20.002;2023-04-24T13:29:59;13.17;;;3.80;;
34920;SDS011;21128;50.016;20.002;2023-04-24T13:32:26;4.03;;;3.23;;
34920;SDS011;21128;50.016;20.002;2023-04-24T13:34:55;6.33;;;3.50;;
34920;SDS011;21128;50.016;20.002;2023-04-24T13:37:23;7.37;;;3.47;;
34920;SDS011;21128;50.016;20.002;2023-04-24T13:39:50;6.45;;;3.85;;
34920;SDS011;21128;50.016;20.002;2023-04-24T13:42:17;9.40;;;3.67;;
34920;SDS011;21128;50.016;20.002;2023-04-24T13:44:45;5.20;;;3.52;;
34920;SDS011;21128;50.016;20.002;2023-04-24T13:47:12;8.50;;;3.43;;
34920;SDS011;21128;50.016;20.002;2023-04-24T13:49:39;7.17;;;3.73;;
34920;SDS011;21128;50.016;20.002;2023-04-24T13:52:06;5.83;;;3.97;;
34920;SDS011;21128;50.016;20.002;2023-04-24T13:54:33;9.97;;;3.63;;
34920;SDS011;21128;50.016;20.002;2023-04-24T13:57:01;8.80;;;4.05;;
34920;SDS011;21128;50.016;20.002;2023-04-24T13:59:29;5.40;;;3.60;;
34920;SDS011;21128;50.016;20.002;2023-04-24T14:01:56;10.63;;;3.83;;
34920;SDS011;21128;50.016;20.002;2023-04-24T14:04:23;8.37;;;3.30;;
34920;SDS011;21128;50.016;20.002;2023-04-24T14:06:50;7.43;;;3.30;;
34920;SDS011;21128;50.016;20.002;2023-04-24T14:09:17;5.23;;;3.13;;
34920;SDS011;21128;50.016;20.002;2023-04-24T14:11:44;4.08;;;2.65;;
34920;SDS011;21128;50.016;20.002;2023-04-24T14:14:11;7.57;;;2.70;;
34920;SDS011;21128;50.016;20.002;2023-04-24T14:16:38;4.05;;;2.20;;
34920;SDS011;21128;50.016;20.002;2023-04-24T14:19:05;3.33;;;2.57;;
34920;SDS011;21128;50.016;20.002;2023-04-24T14:21:32;2.90;;;2.50;;
34920;SDS011;21128;50.016;20.002;2023-04-24T14:24:00;4.10;;;2.58;;
34920;SDS011;21128;50.016;20.002;2023-04-24T14:26:27;3.83;;;2.57;;
34920;SDS011;21128;50.016;20.002;2023-04-24T14:28:54;6.12;;;2.60;;
34920;SDS011;21128;50.016;20.002;2023-04-24T14:31:21;7.17;;;2.30;;
34920;SDS011;21128;50.016;20.002;2023-04-24T14:33:48;4.55;;;2.22;;
34920;SDS011;21128;50.016;20.002;2023-04-24T14:36:15;3.40;;;2.20;;
34920;SDS011;21128;50.016;20.002;2023-04-24T14:38:42;4.27;;;2.60;;
34920;SDS011;21128;50.016;20.002;2023-04-24T14:41:09;4.30;;;2.33;;
34920;SDS011;21128;50.016;20.002;2023-04-24T14:43:38;4.80;;;2.33;;
34920;SDS011;21128;50.016;20.002;2023-04-24T14:46:05;8.95;;;2.72;;
34920;SDS011;21128;50.016;20.002;2023-04-24T14:48:32;5.50;;;2.73;;
34920;SDS011;21128;50.016;20.002;2023-04-24T14:50:59;3.95;;;2.50;;
34920;SDS011;21128;50.016;20.002;2023-04-24T14:53:26;2.90;;;2.13;;
34920;SDS011;21128;50.016;20.002;2023-04-24T14:55:53;3.57;;;2.37;;